Weather at Stanke Dimitrov Air Base [CLOSED]

Public forecast

Using degrees Celsius for public forecast. Weather courtesy of forecast.io.

Closest aviation weather report (METAR) to Stanke Dimitrov Air Base

Closest report is Sofia Airport, 24.2 nm (44.9 km) NNE. Retrieved 2022/07/04 15:30 UTC (20 minutes ago):

LBSF 041530Z 13008KT 9999 FEW056 30/16 Q1016 NOSIG

Closest aviation forecast (TAF) to Stanke Dimitrov Air Base

Closest forecast is Sofia Airport, 24.2 nm (44.9 km) NNE. Retrieved 2022/07/04 12:18 UTC (4 hours ago):

TAF LBSF 041100Z 0412/0512 09010KT 9999 SCT070 PROB30 TEMPO 0412/0416 VRB16G26KT 5000 TSRA SCT035CB BKN060 BECMG 0420/0422 VRB04KT